Time;durP1;ratioP1;P1;durP2;ratioP2;P2;SDS_P1;SDS_P2;PMS_P1;PMS_P2;Temp;Humidity;BMP_temperature;BMP_pressure;BME280_temperature;BME280_humidity;BME280_pressure;Samples;Min_cycle;Max_cycle;Signal;HPM_P1;HPM_P2
2022/04/08 00:01:25;;;;;;;5.67;1.30;;;5.60;99.90;;;;;;5015980;28;20048;-83
2022/04/08 00:03:52;;;;;;;5.27;1.33;;;5.70;99.90;;;;;;5022960;28;20091;-82
2022/04/08 00:06:18;;;;;;;8.00;1.90;;;5.70;99.90;;;;;;5039668;28;20075;-82
2022/04/08 00:08:45;;;;;;;9.10;1.37;;;5.70;99.90;;;;;;5039207;28;20071;-82
2022/04/08 00:11:11;;;;;;;6.37;1.83;;;5.70;99.90;;;;;;5023842;28;20088;-82
2022/04/08 00:13:37;;;;;;;8.10;1.33;;;5.70;99.90;;;;;;5040420;28;20108;-82
2022/04/08 00:16:03;;;;;;;6.70;1.53;;;5.70;99.90;;;;;;5039773;28;20092;-82
2022/04/08 00:18:29;;;;;;;5.67;1.40;;;5.70;99.90;;;;;;4991771;28;20522;-82
2022/04/08 00:20:56;;;;;;;13.20;2.27;;;5.70;99.90;;;;;;5006316;28;20049;-82
2022/04/08 00:23:22;;;;;;;4.20;1.20;;;5.70;99.90;;;;;;5024966;28;20056;-82
2022/04/08 00:25:48;;;;;;;6.17;1.47;;;5.70;99.90;;;;;;5023050;28;20048;-83
2022/04/08 00:28:13;;;;;;;7.97;1.30;;;5.70;99.90;;;;;;5023599;28;20033;-82
2022/04/08 00:30:39;;;;;;;6.27;1.73;;;5.70;99.90;;;;;;5021249;28;20071;-82
2022/04/08 00:33:05;;;;;;;4.57;1.20;;;5.70;99.90;;;;;;5013324;28;20053;-83
2022/04/08 00:35:31;;;;;;;4.40;1.43;;;5.70;99.90;;;;;;5009192;28;20428;-82
2022/04/08 00:37:57;;;;;;;8.80;1.53;;;5.70;99.90;;;;;;5039270;28;20045;-82
2022/04/08 00:40:23;;;;;;;3.87;1.20;;;5.60;99.90;;;;;;5017372;28;20049;-83
2022/04/08 00:42:49;;;;;;;6.30;1.10;;;5.60;99.90;;;;;;5021753;28;20045;-83
2022/04/08 00:45:15;;;;;;;6.97;1.20;;;5.60;99.90;;;;;;5022339;28;20082;-82
2022/04/08 00:47:41;;;;;;;8.10;1.60;;;5.60;99.90;;;;;;5028005;28;20075;-82
2022/04/08 00:50:09;;;;;;;4.90;1.10;;;5.60;99.90;;;;;;5023050;28;20041;-82
2022/04/08 00:52:35;;;;;;;8.63;1.67;;;5.60;99.90;;;;;;5023679;28;20056;-82
2022/04/08 00:55:06;;;;;;;4.07;1.10;;;5.60;99.90;;;;;;5021823;28;20045;-82
2022/04/08 00:57:32;;;;;;;6.57;1.30;;;5.60;99.90;;;;;;5023070;28;20096;-83
2022/04/08 01:00:05;;;;;;;3.00;0.80;;;5.60;99.90;;;;;;5008194;28;20064;-82
2022/04/08 01:02:31;;;;;;;3.80;1.37;;;5.50;99.90;;;;;;5039680;28;20050;-83
2022/04/08 01:04:57;;;;;;;2.63;0.97;;;5.50;99.90;;;;;;5018902;28;20045;-85
2022/04/08 01:07:23;;;;;;;2.77;0.73;;;5.40;99.90;;;;;;5032499;28;20060;-82
2022/04/08 01:09:52;;;;;;;3.93;0.70;;;5.30;99.90;;;;;;5006983;28;20087;-83
2022/04/08 01:12:19;;;;;;;4.20;0.90;;;5.20;99.90;;;;;;5005904;28;20053;-83
2022/04/08 01:14:44;;;;;;;4.40;1.10;;;5.20;99.90;;;;;;5027733;28;20045;-82
2022/04/08 01:17:10;;;;;;;2.53;0.80;;;5.10;99.90;;;;;;5018467;28;20075;-82
2022/04/08 01:19:36;;;;;;;3.50;0.80;;;5.10;99.90;;;;;;5018447;28;20049;-82
2022/04/08 01:22:02;;;;;;;3.60;0.67;;;5.00;99.90;;;;;;4990040;28;20170;-82
2022/04/08 01:24:29;;;;;;;4.57;1.10;;;5.00;99.90;;;;;;5002766;28;20109;-82
2022/04/08 01:26:56;;;;;;;3.53;0.93;;;4.90;99.90;;;;;;5038931;28;20495;-82
2022/04/08 01:29:21;;;;;;;4.77;0.97;;;4.90;99.90;;;;;;5045188;28;20104;-82
2022/04/08 01:31:47;;;;;;;4.53;1.27;;;4.90;99.90;;;;;;5021770;28;20049;-82
2022/04/08 01:34:13;;;;;;;5.13;1.00;;;4.80;99.90;;;;;;5033454;28;20069;-82
2022/04/08 01:36:40;;;;;;;8.30;1.00;;;4.80;99.90;;;;;;5022218;28;20076;-83
2022/04/08 01:39:06;;;;;;;8.73;1.47;;;4.90;99.90;;;;;;5038533;28;20555;-83
2022/04/08 01:41:32;;;;;;;2.17;1.00;;;4.80;99.90;;;;;;5020100;28;20053;-83
2022/04/08 01:43:58;;;;;;;5.13;1.00;;;4.80;99.90;;;;;;5023342;28;20068;-84
2022/04/08 01:46:24;;;;;;;2.33;0.80;;;4.70;99.90;;;;;;5006181;28;20076;-83
2022/04/08 01:48:53;;;;;;;2.87;0.83;;;4.60;99.90;;;;;;5040125;28;20109;-83
2022/04/08 01:51:20;;;;;;;4.70;1.20;;;4.50;99.90;;;;;;5044957;28;20056;-83
2022/04/08 01:53:46;;;;;;;3.30;0.80;;;4.50;99.90;;;;;;5034561;28;20040;-83
2022/04/08 01:56:11;;;;;;;4.53;1.00;;;4.50;99.90;;;;;;5029337;28;20060;-83
2022/04/08 01:58:37;;;;;;;5.03;1.20;;;4.40;99.90;;;;;;5035533;28;20570;-83
2022/04/08 02:01:03;;;;;;;2.87;0.80;;;4.40;99.90;;;;;;5028636;28;20056;-84
2022/04/08 02:03:29;;;;;;;5.80;1.53;;;4.40;99.90;;;;;;5044923;28;20078;-83
2022/04/08 02:05:55;;;;;;;6.50;1.60;;;4.40;99.90;;;;;;5030026;28;20041;-84
2022/04/08 02:08:21;;;;;;;7.03;1.10;;;4.40;99.90;;;;;;5059833;28;20041;-82
2022/04/08 02:10:47;;;;;;;5.57;1.30;;;4.40;99.90;;;;;;5045583;28;20045;-83
2022/04/08 02:13:13;;;;;;;3.33;1.10;;;4.40;99.90;;;;;;5045412;28;20087;-82
2022/04/08 02:15:39;;;;;;;3.93;1.00;;;4.40;99.90;;;;;;5019934;28;20032;-83
2022/04/08 02:18:05;;;;;;;4.67;1.30;;;4.40;99.90;;;;;;5045689;28;20059;-83
2022/04/08 02:20:32;;;;;;;5.40;1.30;;;4.30;99.90;;;;;;5042453;28;20439;-82
2022/04/08 02:22:59;;;;;;;8.20;1.33;;;4.30;99.90;;;;;;5029666;28;20036;-82
2022/04/08 02:25:28;;;;;;;8.00;1.13;;;4.30;99.90;;;;;;5044520;28;20045;-82
2022/04/08 02:27:54;;;;;;;4.17;1.10;;;4.20;99.90;;;;;;5045425;28;20052;-83
2022/04/08 02:30:20;;;;;;;5.40;1.27;;;4.20;99.90;;;;;;5045238;28;20829;-82
2022/04/08 02:32:46;;;;;;;7.73;1.10;;;4.20;99.90;;;;;;5028588;28;20044;-82
2022/04/08 02:35:12;;;;;;;6.30;1.00;;;4.10;99.90;;;;;;5024837;28;20048;-82
2022/04/08 02:37:39;;;;;;;6.03;1.30;;;4.00;99.90;;;;;;5044429;28;20577;-82
2022/04/08 02:40:06;;;;;;;8.57;1.30;;;4.00;99.90;;;;;;5058928;28;20040;-82
2022/04/08 02:42:31;;;;;;;6.47;1.20;;;4.00;99.90;;;;;;5039787;28;20041;-83
2022/04/08 02:44:58;;;;;;;6.00;1.20;;;4.00;99.90;;;;;;5037178;28;20047;-83
2022/04/08 02:47:23;;;;;;;4.10;1.23;;;3.90;99.90;;;;;;5041035;28;20079;-84
2022/04/08 02:49:49;;;;;;;6.40;1.33;;;3.90;99.90;;;;;;5025246;28;20048;-83
2022/04/08 02:52:15;;;;;;;6.37;1.67;;;3.90;99.90;;;;;;5041517;28;20053;-83
2022/04/08 02:54:41;;;;;;;7.30;1.53;;;3.90;99.90;;;;;;5056938;28;20045;-83
2022/04/08 02:57:06;;;;;;;3.67;1.33;;;4.00;99.90;;;;;;5025671;28;20041;-83
2022/04/08 02:59:32;;;;;;;8.00;2.67;;;3.90;99.90;;;;;;5025988;28;20045;-83
2022/04/08 03:01:59;;;;;;;5.33;1.30;;;3.80;99.90;;;;;;5015451;28;20055;-83
2022/04/08 03:04:25;;;;;;;4.07;1.00;;;3.80;99.90;;;;;;5024429;28;20374;-84
2022/04/08 03:06:52;;;;;;;5.40;1.40;;;3.70;99.90;;;;;;5024435;28;20148;-84
2022/04/08 03:09:17;;;;;;;6.50;1.50;;;3.70;99.90;;;;;;5051058;28;20052;-84
2022/04/08 03:11:43;;;;;;;4.83;1.60;;;3.70;99.90;;;;;;5007673;28;20057;-84
2022/04/08 03:14:09;;;;;;;4.03;1.57;;;3.70;99.90;;;;;;5041673;28;20041;-83
2022/04/08 03:16:35;;;;;;;5.20;1.40;;;3.70;99.90;;;;;;5038622;28;20051;-83
2022/04/08 03:19:01;;;;;;;6.50;1.60;;;3.70;99.90;;;;;;5058408;28;20100;-84
2022/04/08 03:21:30;;;;;;;6.87;1.63;;;3.70;99.90;;;;;;5023822;28;20049;-83
2022/04/08 03:23:57;;;;;;;4.43;1.43;;;3.70;99.90;;;;;;5024900;28;20077;-84
2022/04/08 03:26:23;;;;;;;8.23;1.43;;;3.70;99.90;;;;;;5041046;28;20110;-84
2022/04/08 03:28:49;;;;;;;5.83;1.67;;;3.70;99.90;;;;;;5024018;28;20045;-84
2022/04/08 03:31:15;;;;;;;7.00;1.73;;;3.70;99.90;;;;;;5038740;28;20060;-83
2022/04/08 03:33:41;;;;;;;9.20;1.80;;;3.70;99.90;;;;;;5040365;28;20044;-83
2022/04/08 03:36:07;;;;;;;6.43;1.53;;;3.70;99.90;;;;;;5038071;28;20033;-83
2022/04/08 03:38:32;;;;;;;7.97;1.67;;;3.70;99.90;;;;;;5037704;28;20051;-83
2022/04/08 03:40:58;;;;;;;7.23;1.40;;;3.70;99.90;;;;;;5057516;28;20045;-83
2022/04/08 03:43:24;;;;;;;10.37;1.60;;;3.70;99.90;;;;;;5024014;28;20049;-83
2022/04/08 03:45:50;;;;;;;8.43;1.80;;;3.70;99.90;;;;;;5056434;28;20040;-83
2022/04/08 03:48:15;;;;;;;5.77;2.23;;;3.70;99.90;;;;;;5037872;28;20049;-83
2022/04/08 03:50:41;;;;;;;11.53;1.87;;;3.70;99.90;;;;;;5035846;28;20052;-83
2022/04/08 03:53:09;;;;;;;4.63;1.60;;;3.70;99.90;;;;;;5023204;28;20060;-84
2022/04/08 03:55:35;;;;;;;6.67;1.70;;;3.70;99.90;;;;;;5007856;28;20041;-83
2022/04/08 03:58:01;;;;;;;10.23;1.80;;;3.70;99.90;;;;;;5021208;28;20037;-85
2022/04/08 04:00:27;;;;;;;8.13;1.73;;;3.70;99.90;;;;;;5038961;28;20516;-84
2022/04/08 04:02:53;;;;;;;6.40;1.77;;;3.70;99.90;;;;;;5022315;28;20049;-84
2022/04/08 04:05:19;;;;;;;5.17;1.80;;;3.70;99.90;;;;;;5026226;28;20053;-83
2022/04/08 04:07:45;;;;;;;7.50;1.53;;;3.70;99.90;;;;;;5020392;28;20636;-84
2022/04/08 04:10:14;;;;;;;8.63;1.97;;;3.80;99.90;;;;;;5024097;28;20076;-84
2022/04/08 04:12:42;;;;;;;6.80;1.90;;;3.80;99.90;;;;;;5023892;28;20056;-83
2022/04/08 04:15:09;;;;;;;10.80;2.03;;;3.80;99.90;;;;;;5056785;28;20167;-83
2022/04/08 04:17:35;;;;;;;6.73;1.70;;;3.80;99.90;;;;;;5039666;28;20056;-84
2022/04/08 04:20:01;;;;;;;5.30;1.40;;;3.80;99.90;;;;;;5023253;28;20079;-83
2022/04/08 04:22:27;;;;;;;3.73;1.40;;;3.70;99.90;;;;;;5040008;28;20045;-84
2022/04/08 04:24:52;;;;;;;3.37;1.20;;;3.70;99.90;;;;;;5019196;28;20088;-84
2022/04/08 04:27:18;;;;;;;3.27;1.10;;;3.60;99.90;;;;;;5020478;28;20141;-83
2022/04/08 04:29:44;;;;;;;4.73;2.10;;;3.60;99.90;;;;;;5038533;28;20049;-84
2022/04/08 04:32:10;;;;;;;5.30;1.17;;;3.60;99.90;;;;;;5023246;28;20041;-83
2022/04/08 04:34:37;;;;;;;2.47;1.00;;;3.60;99.90;;;;;;5019541;28;20045;-84
2022/04/08 04:37:04;;;;;;;2.97;1.10;;;3.60;99.90;;;;;;5052450;28;20040;-84
2022/04/08 04:39:30;;;;;;;1.57;0.97;;;3.50;99.90;;;;;;5036573;28;20496;-83
2022/04/08 04:41:56;;;;;;;4.73;1.17;;;3.50;99.90;;;;;;5047969;28;20079;-84
2022/04/08 04:44:21;;;;;;;4.13;1.30;;;3.50;99.90;;;;;;5040288;28;20474;-83
2022/04/08 04:46:47;;;;;;;2.20;1.10;;;3.40;99.90;;;;;;5051723;28;20056;-83
2022/04/08 04:49:13;;;;;;;3.03;1.40;;;3.40;99.90;;;;;;5022670;28;20056;-84
2022/04/08 04:51:39;;;;;;;1.90;1.13;;;3.40;99.90;;;;;;5056877;28;20053;-84
2022/04/08 04:54:05;;;;;;;2.30;1.00;;;3.30;99.90;;;;;;5022625;28;20118;-83
2022/04/08 04:56:31;;;;;;;2.03;1.00;;;3.30;99.90;;;;;;5022915;28;20072;-83
2022/04/08 04:58:56;;;;;;;3.20;1.70;;;3.30;99.90;;;;;;5006342;28;20124;-83
2022/04/08 05:01:22;;;;;;;3.90;1.43;;;3.30;99.90;;;;;;5005912;28;20079;-83
2022/04/08 05:03:48;;;;;;;3.77;1.13;;;3.30;99.90;;;;;;5022577;28;20041;-83
2022/04/08 05:06:13;;;;;;;4.43;1.40;;;3.20;99.90;;;;;;4988778;28;20046;-83
2022/04/08 05:08:39;;;;;;;1.90;1.00;;;3.20;99.90;;;;;;5037577;28;20079;-86
2022/04/08 05:11:05;;;;;;;3.70;1.33;;;3.20;99.90;;;;;;5023048;28;20053;-84
2022/04/08 05:13:32;;;;;;;2.33;1.20;;;3.20;99.90;;;;;;4990058;28;20071;-83
2022/04/08 05:15:58;;;;;;;3.57;1.20;;;3.20;99.90;;;;;;5038947;28;20045;-83
2022/04/08 05:18:25;;;;;;;2.97;1.30;;;3.20;99.90;;;;;;5038424;28;20048;-84
2022/04/08 05:20:52;;;;;;;3.93;1.80;;;3.20;99.90;;;;;;5009671;28;20041;-83
2022/04/08 05:23:21;;;;;;;4.70;1.33;;;3.20;99.90;;;;;;5043880;28;20048;-84
2022/04/08 05:25:47;;;;;;;2.23;1.50;;;3.30;99.90;;;;;;5009761;28;20408;-84
2022/04/08 05:28:12;;;;;;;3.20;1.53;;;3.40;99.90;;;;;;5010102;28;20049;-84
2022/04/08 05:30:39;;;;;;;6.63;1.50;;;3.50;99.90;;;;;;4994463;28;20102;-83
2022/04/08 05:33:05;;;;;;;3.17;1.50;;;3.60;99.90;;;;;;5006100;28;20156;-84
2022/04/08 05:35:30;;;;;;;2.10;1.47;;;3.60;99.90;;;;;;4987950;28;20057;-80
2022/04/08 05:37:56;;;;;;;5.57;1.70;;;3.80;99.90;;;;;;5025539;28;20041;-84
2022/04/08 05:40:22;;;;;;;5.33;1.53;;;3.80;99.90;;;;;;5009746;28;20463;-83
2022/04/08 05:42:49;;;;;;;3.33;1.67;;;3.80;99.90;;;;;;4997717;28;20397;-84
2022/04/08 05:45:18;;;;;;;5.00;1.67;;;3.90;99.90;;;;;;5025961;28;20052;-84
2022/04/08 05:47:47;;;;;;;1.90;1.80;;;3.90;99.90;;;;;;5036690;28;20403;-83
2022/04/08 05:50:14;;;;;;;7.30;2.17;;;4.00;99.90;;;;;;5021854;28;20382;-84
2022/04/08 05:52:41;;;;;;;6.27;1.60;;;4.00;99.90;;;;;;5012915;28;20069;-85
2022/04/08 05:55:08;;;;;;;4.70;1.80;;;4.00;99.90;;;;;;5022637;28;20484;-84
2022/04/08 05:57:41;;;;;;;5.13;1.47;;;4.10;99.90;;;;;;5022154;28;20045;-85
2022/04/08 06:00:10;;;;;;;4.87;1.67;;;4.10;99.90;;;;;;5041529;28;20087;-84
2022/04/08 06:02:43;;;;;;;6.63;1.70;;;4.00;99.90;;;;;;5007947;28;20041;-85
2022/04/08 06:05:09;;;;;;;2.13;1.43;;;4.10;99.90;;;;;;5040373;28;20108;-85
2022/04/08 06:07:43;;;;;;;2.87;1.50;;;4.00;99.90;;;;;;4999895;28;20047;-85
2022/04/08 06:10:08;;;;;;;4.43;1.57;;;4.10;99.90;;;;;;5024463;28;20466;-84
2022/04/08 06:12:34;;;;;;;4.10;1.27;;;4.10;99.90;;;;;;4999794;28;20045;-84
2022/04/08 06:15:00;;;;;;;3.87;1.60;;;4.10;99.90;;;;;;5015014;28;20037;-84
2022/04/08 06:17:35;;;;;;;2.50;1.30;;;4.20;99.90;;;;;;5003443;28;20077;-84
2022/04/08 06:20:01;;;;;;;3.57;1.23;;;4.20;99.90;;;;;;5014846;28;20075;-84
2022/04/08 06:22:27;;;;;;;3.30;1.50;;;4.30;99.90;;;;;;4993930;28;20053;-84
2022/04/08 06:24:52;;;;;;;4.83;1.70;;;4.40;99.90;;;;;;5005775;28;20054;-84
2022/04/08 06:27:18;;;;;;;4.07;1.33;;;4.50;99.90;;;;;;5051889;28;20136;-86
2022/04/08 06:29:44;;;;;;;1.93;1.23;;;4.60;99.90;;;;;;4983805;28;20033;-87
2022/04/08 06:32:09;;;;;;;3.23;1.47;;;4.70;99.90;;;;;;5003124;28;20041;-86
2022/04/08 06:34:35;;;;;;;2.77;1.40;;;4.70;99.90;;;;;;5017370;28;20041;-78
2022/04/08 06:37:01;;;;;;;1.57;1.37;;;4.80;99.90;;;;;;4989262;28;20119;-87
2022/04/08 06:39:26;;;;;;;2.60;1.57;;;4.90;99.90;;;;;;4987777;28;20037;-83
2022/04/08 06:41:52;;;;;;;5.77;1.70;;;4.90;99.90;;;;;;5007330;28;20049;-83
2022/04/08 06:44:18;;;;;;;2.63;1.33;;;4.80;99.90;;;;;;5000174;28;20049;-83
2022/04/08 06:46:44;;;;;;;3.70;1.40;;;4.80;99.90;;;;;;5001003;28;20061;-84
2022/04/08 06:49:09;;;;;;;5.67;1.70;;;4.80;99.90;;;;;;5004055;28;20136;-84
2022/04/08 06:51:35;;;;;;;3.40;1.50;;;4.80;99.90;;;;;;5003655;28;20633;-82
2022/04/08 06:54:01;;;;;;;3.57;1.67;;;4.80;99.90;;;;;;5035000;28;20040;-85
2022/04/08 06:56:28;;;;;;;2.13;1.47;;;4.90;99.90;;;;;;5003743;28;20135;-84
2022/04/08 06:58:54;;;;;;;1.60;1.20;;;4.90;99.90;;;;;;5023832;28;20037;-85
2022/04/08 07:01:19;;;;;;;3.60;1.40;;;5.00;99.90;;;;;;5021954;28;20037;-84
2022/04/08 07:03:45;;;;;;;5.50;1.80;;;5.10;99.90;;;;;;5005066;28;20045;-84
2022/04/08 07:06:11;;;;;;;2.67;1.47;;;5.10;99.90;;;;;;5023878;28;20045;-84
2022/04/08 07:08:37;;;;;;;1.87;1.40;;;5.20;99.90;;;;;;5015600;28;20427;-84
2022/04/08 07:11:02;;;;;;;3.37;1.50;;;5.10;99.90;;;;;;5002788;28;20049;-85
2022/04/08 07:13:28;;;;;;;4.23;1.60;;;5.10;99.90;;;;;;5005016;28;20158;-84
2022/04/08 07:15:54;;;;;;;2.77;1.30;;;5.10;99.90;;;;;;5005660;28;20694;-83
2022/04/08 07:18:21;;;;;;;2.40;1.33;;;5.10;99.90;;;;;;5038781;28;20409;-85
2022/04/08 07:20:47;;;;;;;4.80;1.53;;;5.10;99.90;;;;;;5034520;28;20040;-84
2022/04/08 07:23:13;;;;;;;3.50;2.00;;;5.20;99.90;;;;;;5022828;28;20052;-84
2022/04/08 07:25:39;;;;;;;2.57;1.67;;;5.30;99.90;;;;;;5037971;28;20044;-83
2022/04/08 07:28:05;;;;;;;3.13;1.90;;;5.30;99.90;;;;;;5019611;28;20045;-84
2022/04/08 07:30:31;;;;;;;2.60;1.60;;;5.50;99.90;;;;;;5036197;28;20423;-84
2022/04/08 07:32:57;;;;;;;4.70;1.80;;;5.60;99.90;;;;;;5018392;28;20036;-85
2022/04/08 07:35:25;;;;;;;4.20;1.40;;;5.80;99.90;;;;;;5019668;28;20049;-85
2022/04/08 07:37:53;;;;;;;5.57;1.70;;;5.90;99.90;;;;;;5051516;28;20060;-84
2022/04/08 07:40:19;;;;;;;3.40;1.50;;;5.90;99.90;;;;;;5031481;28;20044;-84
2022/04/08 07:42:45;;;;;;;3.30;1.70;;;6.00;99.90;;;;;;5038022;28;20047;-84
2022/04/08 07:45:11;;;;;;;4.53;1.47;;;6.10;99.90;;;;;;5018935;28;20041;-84
2022/04/08 07:47:37;;;;;;;3.53;1.60;;;6.00;99.90;;;;;;5053406;28;20048;-85
2022/04/08 07:50:12;;;;;;;3.40;1.50;;;6.00;99.90;;;;;;5015728;28;20048;-82
2022/04/08 07:52:40;;;;;;;5.67;1.63;;;6.00;99.90;;;;;;5036869;28;20074;-84
2022/04/08 07:55:10;;;;;;;5.70;2.00;;;6.10;99.90;;;;;;5068364;28;20106;-85
2022/04/08 07:57:47;;;;;;;3.90;1.60;;;6.20;99.90;;;;;;5036117;28;20063;-85
2022/04/08 08:00:14;;;;;;;2.63;1.40;;;6.40;99.90;;;;;;5017478;28;20078;-85
2022/04/08 08:02:41;;;;;;;4.03;1.40;;;6.50;99.90;;;;;;5035363;28;20047;-85
2022/04/08 08:05:07;;;;;;;3.43;1.67;;;6.70;99.90;;;;;;5036486;28;20052;-85
2022/04/08 08:07:54;;;;;;;3.67;1.57;;;7.00;99.90;;;;;;5035969;28;20052;-86
2022/04/08 08:10:46;;;;;;;4.10;1.60;;;7.20;99.90;;;;;;5036513;28;20079;-84
2022/04/08 08:13:12;;;;;;;3.92;1.50;;;7.00;99.90;;;;;;5046841;28;20056;-86
2022/04/08 08:15:40;;;;;;;4.20;1.37;;;6.80;99.90;;;;;;5019875;28;20048;-85
2022/04/08 08:18:07;;;;;;;4.13;1.77;;;6.60;99.90;;;;;;5037299;28;20470;-85
2022/04/08 08:20:33;;;;;;;5.23;1.73;;;6.70;99.90;;;;;;5004598;28;20073;-86
2022/04/08 08:22:59;;;;;;;6.83;2.23;;;6.70;99.90;;;;;;5020069;28;20094;-86
2022/04/08 08:25:24;;;;;;;4.30;2.10;;;6.70;99.90;;;;;;5002800;28;20056;-85
2022/04/08 08:27:58;;;;;;;8.30;2.60;;;6.80;99.90;;;;;;5045689;28;20036;-85
2022/04/08 08:30:23;;;;;;;9.33;2.60;;;7.00;99.90;;;;;;5042234;28;20065;-85
2022/04/08 08:32:50;;;;;;;6.07;2.60;;;7.10;99.90;;;;;;5020602;28;20505;-84
2022/04/08 08:35:20;;;;;;;7.50;2.40;;;7.20;99.90;;;;;;5026385;28;20047;-85
2022/04/08 08:37:47;;;;;;;6.20;2.50;;;7.30;99.90;;;;;;5025498;28;20076;-87
2022/04/08 08:40:15;;;;;;;7.47;2.60;;;7.40;99.90;;;;;;5053225;28;20392;-84
2022/04/08 08:42:42;;;;;;;6.57;2.13;;;7.50;99.90;;;;;;5028279;28;20036;-86
2022/04/08 08:45:10;;;;;;;4.87;1.90;;;7.70;99.90;;;;;;5015861;28;20052;-85
2022/04/08 08:47:36;;;;;;;7.00;2.00;;;7.80;99.90;;;;;;5029725;28;20060;-86
2022/04/08 08:50:03;;;;;;;4.23;1.80;;;7.90;99.90;;;;;;5035845;28;20063;-86
2022/04/08 08:52:30;;;;;;;3.50;1.77;;;8.00;99.90;;;;;;5033718;28;20052;-85
2022/04/08 08:54:56;;;;;;;2.47;2.10;;;8.10;99.90;;;;;;5035829;28;20482;-86
2022/04/08 08:57:22;;;;;;;5.67;2.30;;;8.00;99.90;;;;;;5004697;28;20068;-85
2022/04/08 08:59:52;;;;;;;5.23;2.00;;;8.00;99.90;;;;;;5036085;28;20048;-85
2022/04/08 09:02:21;;;;;;;11.07;2.87;;;8.10;99.90;;;;;;5037073;28;20087;-85
2022/04/08 09:04:49;;;;;;;6.30;2.43;;;8.10;99.90;;;;;;5035471;28;20041;-85
2022/04/08 09:07:25;;;;;;;6.80;2.00;;;8.10;99.90;;;;;;5020499;28;20052;-85
2022/04/08 09:09:53;;;;;;;7.30;2.13;;;8.00;99.90;;;;;;5021028;28;20039;-86
2022/04/08 09:12:19;;;;;;;6.37;2.00;;;8.10;99.90;;;;;;5033329;28;20052;-85
2022/04/08 09:14:53;;;;;;;5.27;1.97;;;8.20;99.90;;;;;;5020849;28;20052;-85
2022/04/08 09:17:21;;;;;;;3.23;1.80;;;8.30;99.90;;;;;;5035156;28;20741;-85
2022/04/08 09:19:51;;;;;;;7.77;2.23;;;8.40;99.90;;;;;;5036797;28;20062;-86
2022/04/08 09:22:18;;;;;;;11.03;2.50;;;8.40;99.90;;;;;;5039155;28;20547;-84
2022/04/08 09:24:44;;;;;;;4.53;2.00;;;8.60;99.90;;;;;;5014931;28;20520;-84
2022/04/08 09:27:10;;;;;;;4.33;1.90;;;8.70;99.90;;;;;;5059084;28;20131;-84
2022/04/08 09:29:37;;;;;;;4.13;2.10;;;8.70;99.90;;;;;;5036746;28;20081;-84
2022/04/08 09:32:14;;;;;;;6.43;2.10;;;8.70;99.90;;;;;;5042012;28;20162;-84
2022/04/08 09:34:43;;;;;;;8.83;2.10;;;8.50;99.90;;;;;;5038864;28;20412;-85
2022/04/08 09:37:11;;;;;;;7.73;1.93;;;8.40;99.90;;;;;;5027453;28;20052;-85
2022/04/08 09:39:51;;;;;;;5.17;1.73;;;8.50;99.90;;;;;;5025199;28;20060;-87
2022/04/08 09:42:17;;;;;;;5.03;1.90;;;8.40;99.90;;;;;;5042898;28;20051;-85
2022/04/08 09:44:42;;;;;;;6.10;2.10;;;8.40;99.90;;;;;;5006608;28;20049;-84
2022/04/08 09:47:08;;;;;;;5.73;1.83;;;8.50;99.90;;;;;;5017727;28;20048;-85
2022/04/08 09:49:35;;;;;;;5.40;1.83;;;8.50;99.90;;;;;;5038104;28;20134;-85
2022/04/08 09:52:05;;;;;;;6.00;2.17;;;8.60;99.90;;;;;;5036591;28;20582;-85
2022/04/08 09:54:33;;;;;;;3.33;1.90;;;8.70;99.90;;;;;;5038500;28;20041;-84
2022/04/08 09:57:02;;;;;;;5.17;2.47;;;8.80;99.90;;;;;;5039553;28;20068;-85
2022/04/08 09:59:33;;;;;;;4.23;2.07;;;8.90;99.90;;;;;;5038647;28;20057;-84
2022/04/08 10:01:58;;;;;;;6.30;2.27;;;9.20;99.90;;;;;;5037359;28;20113;-85
2022/04/08 10:04:25;;;;;;;7.90;2.20;;;9.40;99.90;;;;;;5055342;28;20079;-84
2022/04/08 10:06:51;;;;;;;5.73;2.07;;;9.40;99.90;;;;;;5034073;28;20098;-85
2022/04/08 10:09:19;;;;;;;8.93;2.30;;;9.50;99.90;;;;;;5023649;28;20089;-85
2022/04/08 10:12:06;;;;;;;7.90;2.80;;;9.70;99.90;;;;;;5037555;28;20053;-87
2022/04/08 10:14:43;;;;;;;7.60;2.60;;;9.90;99.90;;;;;;5031781;28;20033;-84
2022/04/08 10:17:09;;;;;;;7.77;2.20;;;10.10;99.90;;;;;;5036669;28;20049;-87
2022/04/08 10:19:41;;;;;;;9.13;2.25;;;10.30;99.90;;;;;;5059412;28;20083;-82
2022/04/08 10:22:18;;;;;;;6.47;2.53;;;10.20;99.90;;;;;;5033919;28;20489;-86
2022/04/08 10:24:57;;;;;;;6.23;1.73;;;10.00;99.90;;;;;;5013218;28;20067;-84
2022/04/08 10:27:38;;;;;;;12.53;2.33;;;10.00;99.90;;;;;;5016974;28;20088;-86
2022/04/08 10:30:21;;;;;;;6.30;2.40;;;10.00;99.90;;;;;;5030712;28;20138;-85
2022/04/08 10:32:59;;;;;;;7.23;2.57;;;9.80;99.90;;;;;;5054970;28;20087;-85
2022/04/08 10:35:24;;;;;;;6.20;2.20;;;9.80;99.90;;;;;;5016537;28;20137;-84
2022/04/08 10:38:01;;;;;;;4.13;1.80;;;9.90;99.90;;;;;;5020051;28;20041;-84
2022/04/08 10:40:39;;;;;;;6.60;2.03;;;10.00;99.90;;;;;;5033186;28;20041;-84
2022/04/08 10:43:10;;;;;;;6.47;2.40;;;10.00;99.90;;;;;;5032572;28;20080;-84
2022/04/08 10:45:37;;;;;;;9.73;2.80;;;9.90;99.90;;;;;;5041138;28;20072;-85
2022/04/08 10:48:09;;;;;;;8.00;2.47;;;9.90;99.90;;;;;;5042066;28;20120;-84
2022/04/08 10:50:35;;;;;;;7.32;2.92;;;9.80;99.90;;;;;;5028800;28;20053;-84
2022/04/08 10:53:18;;;;;;;6.23;2.73;;;9.80;99.90;;;;;;5023541;28;20124;-86
2022/04/08 10:56:08;;;;;;;7.83;2.70;;;9.80;99.90;;;;;;5022968;28;20879;-84
2022/04/08 10:58:35;;;;;;;6.00;2.33;;;9.60;99.90;;;;;;5050344;28;20519;-84
2022/04/08 11:01:22;;;;;;;6.47;2.00;;;9.70;99.90;;;;;;5034255;28;20440;-84
2022/04/08 11:03:56;;;;;;;7.20;2.40;;;9.70;99.90;;;;;;5036268;28;20052;-83
2022/04/08 11:06:24;;;;;;;5.53;2.23;;;9.50;99.90;;;;;;5033916;28;20051;-83
2022/04/08 11:08:50;;;;;;;4.67;1.97;;;9.60;99.90;;;;;;5048794;28;20511;-84
2022/04/08 11:11:16;;;;;;;5.10;2.20;;;9.60;99.90;;;;;;5008341;28;20044;-82
2022/04/08 11:13:42;;;;;;;3.90;1.90;;;9.90;99.90;;;;;;5034923;28;20355;-83
2022/04/08 11:16:08;;;;;;;4.43;2.03;;;10.00;99.90;;;;;;5028665;28;20044;-84
2022/04/08 11:18:34;;;;;;;4.57;1.80;;;10.00;99.90;;;;;;5042513;28;20056;-84
2022/04/08 11:21:00;;;;;;;6.10;1.60;;;10.00;99.90;;;;;;5023712;28;20045;-84
2022/04/08 11:23:28;;;;;;;5.30;1.93;;;9.80;99.90;;;;;;5008654;28;20064;-84
2022/04/08 11:25:54;;;;;;;4.20;1.73;;;9.70;99.90;;;;;;5016364;28;20124;-83
2022/04/08 11:28:22;;;;;;;4.50;2.13;;;9.60;99.90;;;;;;5034968;28;20056;-84
2022/04/08 11:30:58;;;;;;;7.33;1.77;;;9.40;99.90;;;;;;5046517;28;20047;-83
2022/04/08 11:33:24;;;;;;;5.23;1.70;;;9.40;99.90;;;;;;5037604;28;20045;-83
2022/04/08 11:35:58;;;;;;;3.67;1.43;;;9.40;99.90;;;;;;5043777;28;20036;-84
2022/04/08 11:38:25;;;;;;;3.60;1.70;;;9.40;99.90;;;;;;5023005;28;20072;-84
2022/04/08 11:40:51;;;;;;;2.27;1.60;;;9.40;99.90;;;;;;5048325;28;20072;-86
2022/04/08 11:43:19;;;;;;;3.13;1.60;;;9.60;99.90;;;;;;5059055;28;20229;-84
2022/04/08 11:45:46;;;;;;;7.73;2.07;;;9.80;99.90;;;;;;5033541;28;20513;-87
2022/04/08 11:48:13;;;;;;;5.80;1.63;;;9.90;99.90;;;;;;5021477;28;20581;-86
2022/04/08 11:50:40;;;;;;;6.70;2.37;;;10.10;99.90;;;;;;5010338;28;20041;-86
2022/04/08 11:53:16;;;;;;;6.23;2.00;;;10.30;99.90;;;;;;5023096;28;20054;-85
2022/04/08 11:56:01;;;;;;;5.27;1.93;;;10.30;99.90;;;;;;5046758;28;20148;-86
2022/04/08 11:58:28;;;;;;;4.93;2.00;;;10.10;99.90;;;;;;5035884;28;21587;-84
2022/04/08 12:00:55;;;;;;;3.87;1.50;;;9.80;99.90;;;;;;5023339;28;20429;-84
2022/04/08 12:03:22;;;;;;;3.67;1.60;;;9.20;99.90;;;;;;5027055;28;20045;-84
2022/04/08 12:05:49;;;;;;;6.37;1.60;;;8.80;99.90;;;;;;5060437;28;20049;-84
2022/04/08 12:08:15;;;;;;;4.20;1.40;;;8.50;99.90;;;;;;5025215;28;20048;-84
2022/04/08 12:10:41;;;;;;;4.97;1.50;;;8.20;99.90;;;;;;5052403;28;20396;-85
2022/04/08 12:13:19;;;;;;;5.63;1.60;;;8.10;99.90;;;;;;5039781;28;20051;-85
2022/04/08 12:15:47;;;;;;;4.47;1.50;;;8.20;99.90;;;;;;5055369;28;20146;-84
2022/04/08 12:18:20;;;;;;;4.63;1.43;;;8.20;99.90;;;;;;5057619;28;20045;-86
2022/04/08 12:20:50;;;;;;;5.87;1.60;;;8.30;99.90;;;;;;5038423;28;20109;-86
2022/04/08 12:23:16;;;;;;;5.23;1.50;;;8.50;99.90;;;;;;5041949;28;20063;-85
2022/04/08 12:25:42;;;;;;;3.67;1.50;;;8.90;99.90;;;;;;5015178;28;20045;-84
2022/04/08 12:28:12;;;;;;;3.43;1.60;;;9.20;99.90;;;;;;5018231;28;20044;-84
2022/04/08 12:30:38;;;;;;;4.37;1.70;;;9.40;99.90;;;;;;5024309;28;20049;-84
2022/04/08 12:33:04;;;;;;;4.43;2.33;;;9.40;99.90;;;;;;5017513;28;20048;-84
2022/04/08 12:35:30;;;;;;;3.77;1.63;;;9.40;99.90;;;;;;5016585;28;20482;-84
2022/04/08 12:37:57;;;;;;;3.60;1.40;;;9.30;99.90;;;;;;5009242;28;20048;-84
2022/04/08 12:40:22;;;;;;;4.00;1.40;;;9.20;99.90;;;;;;5056855;28;20064;-84
2022/04/08 12:42:48;;;;;;;5.77;1.53;;;9.20;99.90;;;;;;5052816;28;20045;-84
2022/04/08 12:45:15;;;;;;;5.57;2.10;;;9.30;99.90;;;;;;5022815;28;20505;-85
2022/04/08 12:47:42;;;;;;;4.90;1.60;;;9.50;99.90;;;;;;5045443;28;20079;-84
2022/04/08 12:50:10;;;;;;;4.57;1.83;;;9.70;99.90;;;;;;5013095;28;20064;-86
2022/04/08 12:52:36;;;;;;;6.80;1.40;;;9.80;99.90;;;;;;5019797;28;20046;-85
2022/04/08 12:55:02;;;;;;;5.67;1.50;;;9.90;99.90;;;;;;5022344;28;20091;-85
2022/04/08 12:57:31;;;;;;;3.40;1.40;;;10.00;99.90;;;;;;5017432;28;20041;-85